createdAt,value
2023-05-24T00:00:43.317Z,12.68
2023-05-24T00:03:12.845Z,10.40
2023-05-24T00:05:41.293Z,11.43
2023-05-24T00:08:09.525Z,18.95
2023-05-24T00:10:37.850Z,18.10
2023-05-24T00:13:06.443Z,15.15
2023-05-24T00:15:34.761Z,14.73
2023-05-24T00:18:03.081Z,18.40
2023-05-24T00:20:31.591Z,21.90
2023-05-24T00:22:59.912Z,17.50
2023-05-24T00:25:28.195Z,20.55
2023-05-24T00:27:56.528Z,19.13
2023-05-24T00:30:27.255Z,22.75
2023-05-24T00:32:57.098Z,20.80
2023-05-24T00:35:25.503Z,14.68
2023-05-24T00:37:55.011Z,19.95
2023-05-24T00:40:23.311Z,17.80
2023-05-24T00:42:52.005Z,15.40
2023-05-24T00:45:20.399Z,17.98
2023-05-24T00:47:48.883Z,17.33
2023-05-24T00:50:17.568Z,18.20
2023-05-24T00:52:47.811Z,21.67
2023-05-24T00:55:16.399Z,18.27
2023-05-24T00:57:45.566Z,20.35
2023-05-24T01:00:14.247Z,21.02
2023-05-24T01:02:44.083Z,21.23
2023-05-24T01:05:13.798Z,18.92
2023-05-24T01:08:13.038Z,19.48
2023-05-24T01:11:03.029Z,19.73
2023-05-24T01:13:49.605Z,16.55
2023-05-24T01:16:46.622Z,14.70
2023-05-24T01:19:43.468Z,15.13
2023-05-24T01:22:17.762Z,14.07
2023-05-24T01:25:28.461Z,11.95
2023-05-24T01:27:58.483Z,13.18
2023-05-24T01:30:28.825Z,13.27
2023-05-24T01:32:58.411Z,13.48
2023-05-24T01:35:26.749Z,14.57
2023-05-24T01:37:55.012Z,13.73
2023-05-24T01:40:23.781Z,20.23
2023-05-24T01:43:03.131Z,14.18
2023-05-24T01:46:05.154Z,13.18
2023-05-24T01:48:51.482Z,13.23
2023-05-24T01:51:22.849Z,15.82
2023-05-24T01:53:53.496Z,18.45
2023-05-24T01:56:22.371Z,18.25
2023-05-24T01:58:52.906Z,14.07
2023-05-24T02:01:21.802Z,12.95
2023-05-24T02:03:51.295Z,16.42
2023-05-24T02:06:19.978Z,15.02
2023-05-24T02:08:48.364Z,18.70
2023-05-24T02:11:16.841Z,15.32
2023-05-24T02:13:47.665Z,21.98
2023-05-24T02:16:18.312Z,20.00
2023-05-24T02:18:47.913Z,13.75
2023-05-24T02:21:16.238Z,15.07
2023-05-24T02:23:45.058Z,14.52
2023-05-24T02:26:14.722Z,13.13
2023-05-24T02:28:43.358Z,13.63
2023-05-24T02:31:11.927Z,13.40
2023-05-24T02:33:40.599Z,12.75
2023-05-24T02:36:08.922Z,14.20
2023-05-24T02:38:37.226Z,14.07
2023-05-24T02:41:05.534Z,16.60
2023-05-24T02:43:33.815Z,14.40
2023-05-24T02:46:02.136Z,13.30
2023-05-24T02:48:30.521Z,12.88
2023-05-24T02:50:58.802Z,12.05
2023-05-24T02:53:27.053Z,14.25
2023-05-24T02:55:55.386Z,13.95
2023-05-24T02:58:23.931Z,13.95
2023-05-24T03:00:52.733Z,14.40
2023-05-24T03:03:22.840Z,14.55
2023-05-24T03:05:51.394Z,14.35
2023-05-24T03:08:19.611Z,18.73
2023-05-24T03:10:47.899Z,12.02
2023-05-24T03:13:16.537Z,13.13
2023-05-24T03:15:44.866Z,13.40
2023-05-24T03:18:14.542Z,19.10
2023-05-24T03:20:44.698Z,18.45
2023-05-24T03:23:15.177Z,14.52
2023-05-24T03:25:44.217Z,12.13
2023-05-24T03:28:14.808Z,16.83
2023-05-24T03:30:44.977Z,16.77
2023-05-24T03:33:13.532Z,17.23
2023-05-24T03:35:42.202Z,14.27
2023-05-24T03:38:11.324Z,16.15
2023-05-24T03:40:44.398Z,14.85
2023-05-24T03:43:19.650Z,12.32
2023-05-24T03:45:58.327Z,13.73
2023-05-24T03:48:26.647Z,16.20
2023-05-24T03:50:54.927Z,16.40
2023-05-24T03:53:23.539Z,15.05
2023-05-24T03:55:52.154Z,21.52
2023-05-24T03:58:20.644Z,15.07
2023-05-24T04:00:48.885Z,16.67
2023-05-24T04:03:20.197Z,16.00
2023-05-24T04:05:49.202Z,14.82
2023-05-24T04:08:17.618Z,18.55
2023-05-24T04:10:46.001Z,13.35
2023-05-24T04:13:14.281Z,14.07
2023-05-24T04:15:43.463Z,18.63
2023-05-24T04:18:13.123Z,18.05
2023-05-24T04:20:41.930Z,16.52
2023-05-24T04:23:11.453Z,16.85
2023-05-24T04:25:39.930Z,18.70
2023-05-24T04:28:08.753Z,14.13
2023-05-24T04:30:37.644Z,16.10
2023-05-24T04:33:06.078Z,20.08
2023-05-24T04:35:35.681Z,21.83
2023-05-24T04:38:04.116Z,18.23
2023-05-24T04:40:32.342Z,19.00
2023-05-24T04:43:01.304Z,14.30
2023-05-24T04:45:30.814Z,16.92
2023-05-24T04:47:59.258Z,21.25
2023-05-24T04:50:28.721Z,16.00
2023-05-24T04:52:57.695Z,18.20
2023-05-24T04:55:25.999Z,19.15
2023-05-24T04:57:54.248Z,15.55
2023-05-24T05:00:22.838Z,15.80
2023-05-24T05:02:51.284Z,17.65
2023-05-24T05:05:20.224Z,18.42
2023-05-24T05:07:48.490Z,14.88
2023-05-24T05:10:16.835Z,16.35
2023-05-24T05:12:45.134Z,17.33
2023-05-24T05:15:13.733Z,14.80
2023-05-24T05:17:42.186Z,18.98
2023-05-24T05:20:10.740Z,16.00
2023-05-24T05:22:39.079Z,17.63
2023-05-24T05:25:07.587Z,21.48
2023-05-24T05:27:35.953Z,23.75
2023-05-24T05:30:04.494Z,21.13
2023-05-24T05:32:33.369Z,23.30
2023-05-24T05:35:01.710Z,26.80
2023-05-24T05:37:31.779Z,22.00
2023-05-24T05:40:00.071Z,26.70
2023-05-24T05:42:28.438Z,24.00
2023-05-24T05:44:57.253Z,23.73
2023-05-24T05:47:25.638Z,23.58
2023-05-24T05:49:54.026Z,20.40
2023-05-24T05:52:22.364Z,26.67
2023-05-24T05:54:51.076Z,27.95
2023-05-24T05:57:24.184Z,25.13
2023-05-24T05:59:52.633Z,24.60
2023-05-24T06:02:22.765Z,27.52
2023-05-24T06:04:51.248Z,27.33
2023-05-24T06:07:19.645Z,25.60
2023-05-24T06:09:48.014Z,25.77
2023-05-24T06:12:16.577Z,22.63
2023-05-24T06:14:44.871Z,22.83
2023-05-24T06:17:13.676Z,25.60
2023-05-24T06:19:41.984Z,23.10
2023-05-24T06:22:10.845Z,27.88
2023-05-24T06:24:39.711Z,22.55
2023-05-24T06:27:08.087Z,24.58
2023-05-24T06:29:36.353Z,26.50
2023-05-24T06:32:05.245Z,22.77
2023-05-24T06:34:33.602Z,27.73
2023-05-24T06:37:02.595Z,26.83
2023-05-24T06:39:31.055Z,23.67
2023-05-24T06:41:59.275Z,24.70
2023-05-24T06:44:33.991Z,27.75
2023-05-24T06:47:02.557Z,21.85
2023-05-24T06:49:30.954Z,20.73
2023-05-24T06:51:59.276Z,29.30
2023-05-24T06:54:27.491Z,20.67
2023-05-24T06:56:56.071Z,23.42
2023-05-24T06:59:24.432Z,26.58
2023-05-24T07:01:58.890Z,25.15
2023-05-24T07:04:29.410Z,27.02
2023-05-24T07:06:58.493Z,19.67
2023-05-24T07:09:26.989Z,24.45
2023-05-24T07:11:55.444Z,22.80
2023-05-24T07:14:26.060Z,24.65
2023-05-24T07:16:57.688Z,24.98
2023-05-24T07:19:29.716Z,26.70
2023-05-24T07:21:58.320Z,25.95
2023-05-24T07:24:26.647Z,25.60
2023-05-24T07:26:56.889Z,29.27
2023-05-24T07:29:26.276Z,22.30
2023-05-24T07:31:56.597Z,19.88
2023-05-24T07:34:27.720Z,19.45
2023-05-24T07:36:58.808Z,26.63
2023-05-24T07:39:27.997Z,23.77
2023-05-24T07:41:56.298Z,24.58
2023-05-24T07:44:24.664Z,19.75
2023-05-24T07:46:53.115Z,24.10
2023-05-24T07:49:22.193Z,28.65
2023-05-24T07:51:50.440Z,22.58
2023-05-24T07:54:18.758Z,20.13
2023-05-24T07:56:47.227Z,19.77
2023-05-24T07:59:15.902Z,23.10
2023-05-24T08:01:44.367Z,27.75
2023-05-24T08:04:12.692Z,25.05
2023-05-24T08:06:41.810Z,22.83
2023-05-24T08:09:10.337Z,25.00
2023-05-24T08:11:38.620Z,27.02
2023-05-24T08:14:06.889Z,21.63
2023-05-24T08:16:35.311Z,26.13
2023-05-24T08:19:03.753Z,25.75
2023-05-24T08:21:32.124Z,25.05
2023-05-24T08:24:00.692Z,22.52
2023-05-24T08:26:28.975Z,26.50
2023-05-24T08:28:57.272Z,26.65
2023-05-24T08:31:26.200Z,25.75
2023-05-24T08:33:56.172Z,18.52
2023-05-24T08:36:24.453Z,18.02
2023-05-24T08:38:52.804Z,20.30
2023-05-24T08:41:21.314Z,20.08
2023-05-24T08:43:51.017Z,17.85
2023-05-24T08:46:20.140Z,18.48
2023-05-24T08:48:49.552Z,15.80
2023-05-24T08:51:18.422Z,17.33
2023-05-24T08:53:50.313Z,10.95
2023-05-24T08:56:19.426Z,10.25
2023-05-24T08:58:50.719Z,12.63
2023-05-24T09:01:19.610Z,10.57
2023-05-24T09:03:48.784Z,11.75
2023-05-24T09:06:18.876Z,9.57
2023-05-24T09:08:47.680Z,12.55
2023-05-24T09:11:16.679Z,9.90
2023-05-24T09:13:49.733Z,9.18
2023-05-24T09:18:46.432Z,8.52
2023-05-24T09:21:15.022Z,11.27
2023-05-24T09:23:44.896Z,11.80
2023-05-24T09:26:13.276Z,10.55
2023-05-24T09:28:42.526Z,9.32
2023-05-24T09:31:10.832Z,8.40
2023-05-24T09:33:40.113Z,13.15
2023-05-24T09:36:08.940Z,12.40
2023-05-24T09:38:37.434Z,14.88
2023-05-24T09:41:06.684Z,10.00
2023-05-24T09:43:48.059Z,8.70
2023-05-24T09:46:22.200Z,11.68
2023-05-24T09:48:58.454Z,12.30
2023-05-24T09:51:27.083Z,15.00
2023-05-24T09:53:58.455Z,13.00
2023-05-24T09:56:27.762Z,11.00
2023-05-24T09:58:57.063Z,12.25
2023-05-24T10:01:27.046Z,12.98
2023-05-24T10:04:00.459Z,13.38
2023-05-24T10:06:29.068Z,12.57
2023-05-24T10:08:57.352Z,34.28
2023-05-24T10:11:26.795Z,15.80
2023-05-24T10:13:56.036Z,16.65
2023-05-24T10:16:25.046Z,16.20
2023-05-24T10:18:54.512Z,16.15
2023-05-24T10:21:26.008Z,13.60
2023-05-24T10:24:00.749Z,13.95
2023-05-24T10:26:32.800Z,15.65
2023-05-24T10:29:10.754Z,13.13
2023-05-24T10:31:43.495Z,16.10
2023-05-24T10:34:12.411Z,17.38
2023-05-24T10:36:41.246Z,18.20
2023-05-24T10:39:13.701Z,12.40
2023-05-24T10:41:42.514Z,17.95
2023-05-24T10:44:20.447Z,14.05
2023-05-24T10:47:12.382Z,15.40
2023-05-24T10:49:59.203Z,13.18
2023-05-24T10:52:37.437Z,12.07
2023-05-24T10:55:08.678Z,12.88
2023-05-24T10:57:38.444Z,11.63
2023-05-24T11:00:35.264Z,12.25
2023-05-24T11:03:08.926Z,12.65
2023-05-24T11:08:33.728Z,12.48
2023-05-24T11:11:26.767Z,11.13
2023-05-24T11:14:00.152Z,10.98
2023-05-24T11:16:40.024Z,11.40
2023-05-24T11:19:23.513Z,12.35
2023-05-24T11:21:58.852Z,12.93
2023-05-24T11:24:29.127Z,11.98
2023-05-24T11:26:59.898Z,16.05
2023-05-24T11:29:29.546Z,12.20
2023-05-24T11:32:07.932Z,12.60
2023-05-24T11:34:39.407Z,10.32
2023-05-24T11:37:07.736Z,14.98
2023-05-24T11:39:37.470Z,14.65
2023-05-24T11:42:07.106Z,21.92
2023-05-24T11:44:39.490Z,11.05
2023-05-24T11:47:08.651Z,11.00
2023-05-24T11:49:36.953Z,9.90
2023-05-24T11:52:06.301Z,10.65
2023-05-24T11:54:35.094Z,9.27
2023-05-24T11:57:03.632Z,11.82
2023-05-24T11:59:31.836Z,10.52
2023-05-24T12:02:04.754Z,9.48
2023-05-24T12:07:03.500Z,13.10
2023-05-24T12:09:31.981Z,11.57
2023-05-24T12:12:00.196Z,14.15
2023-05-24T12:14:31.284Z,12.30
2023-05-24T12:17:01.099Z,12.82
2023-05-24T12:19:37.254Z,9.57
2023-05-24T12:22:07.738Z,10.88
2023-05-24T12:24:37.959Z,9.95
2023-05-24T12:27:07.177Z,11.68
2023-05-24T12:29:40.746Z,12.50
2023-05-24T12:32:14.299Z,12.93
2023-05-24T12:34:44.728Z,9.20
2023-05-24T12:37:14.803Z,7.30
2023-05-24T12:39:44.508Z,12.98
2023-05-24T12:42:13.989Z,12.30
2023-05-24T12:44:43.138Z,11.77
2023-05-24T12:47:12.146Z,11.05
2023-05-24T12:49:40.493Z,12.20
2023-05-24T12:52:08.769Z,7.28
2023-05-24T12:54:39.668Z,9.27
2023-05-24T12:57:09.410Z,8.70
2023-05-24T12:59:37.557Z,8.07
2023-05-24T13:02:05.856Z,12.43
2023-05-24T13:04:36.080Z,8.77
2023-05-24T13:07:04.639Z,10.82
2023-05-24T13:09:35.891Z,9.68
2023-05-24T13:12:05.038Z,10.88
2023-05-24T13:14:33.641Z,9.38
2023-05-24T13:17:02.104Z,14.63
2023-05-24T13:19:36.824Z,10.13
2023-05-24T13:22:05.131Z,13.98
2023-05-24T13:24:33.582Z,11.85
2023-05-24T13:27:03.294Z,10.18
2023-05-24T13:29:39.411Z,9.07
2023-05-24T13:32:12.359Z,9.30
2023-05-24T13:34:41.480Z,11.30
2023-05-24T13:37:09.727Z,10.02
2023-05-24T13:39:38.665Z,9.10
2023-05-24T13:42:07.227Z,13.35
2023-05-24T13:44:35.552Z,10.43
2023-05-24T13:47:03.827Z,8.38
2023-05-24T13:49:32.207Z,14.73
2023-05-24T13:52:01.461Z,12.77
2023-05-24T13:54:29.726Z,12.32
2023-05-24T13:56:58.040Z,9.52
2023-05-24T13:59:27.184Z,8.80
2023-05-24T14:01:55.606Z,10.55
2023-05-24T14:04:23.932Z,7.93
2023-05-24T14:06:52.392Z,9.23
2023-05-24T14:09:21.431Z,9.50
2023-05-24T14:11:49.717Z,10.00
2023-05-24T14:16:52.143Z,11.27
2023-05-24T14:19:21.063Z,12.68
2023-05-24T14:21:49.247Z,11.65
2023-05-24T14:24:17.546Z,9.48
2023-05-24T14:26:47.536Z,12.15
2023-05-24T14:29:16.314Z,9.10
2023-05-24T14:31:44.992Z,8.20
2023-05-24T14:34:13.363Z,12.82
2023-05-24T14:36:41.985Z,13.77
2023-05-24T14:39:10.423Z,9.75
2023-05-24T14:41:38.648Z,8.48
2023-05-24T14:44:06.995Z,11.05
2023-05-24T14:46:35.996Z,13.52
2023-05-24T14:49:04.893Z,13.88
2023-05-24T14:51:33.100Z,9.75
2023-05-24T14:54:01.261Z,8.43
2023-05-24T14:56:29.429Z,12.02
2023-05-24T14:58:57.851Z,9.68
2023-05-24T15:01:26.506Z,10.88
2023-05-24T15:03:54.782Z,9.65
2023-05-24T15:06:23.177Z,11.65
2023-05-24T15:08:52.855Z,10.57
2023-05-24T15:11:22.976Z,11.38
2023-05-24T15:13:55.527Z,10.55
2023-05-24T15:16:24.093Z,9.65
2023-05-24T15:18:52.884Z,12.32
2023-05-24T15:21:21.625Z,8.65
2023-05-24T15:23:49.906Z,11.30
2023-05-24T15:26:18.181Z,12.38
2023-05-24T15:28:46.379Z,12.32
2023-05-24T15:31:14.596Z,8.73
2023-05-24T15:33:42.850Z,12.40
2023-05-24T15:36:14.222Z,10.85
2023-05-24T15:38:43.008Z,11.18
2023-05-24T15:41:11.204Z,9.52
2023-05-24T15:43:39.408Z,11.82
2023-05-24T15:46:07.675Z,11.45
2023-05-24T15:48:36.318Z,10.23
2023-05-24T15:52:01.090Z,8.95
2023-05-24T15:53:55.206Z,9.15
2023-05-24T15:56:23.452Z,10.15
2023-05-24T15:58:51.776Z,10.80
2023-05-24T16:01:20.045Z,11.13
2023-05-24T16:03:48.553Z,9.02
2023-05-24T16:06:16.856Z,7.70
2023-05-24T16:08:45.284Z,10.45
2023-05-24T16:11:13.492Z,13.13
2023-05-24T16:13:41.725Z,12.32
2023-05-24T16:16:09.971Z,10.52
2023-05-24T16:18:38.317Z,8.50
2023-05-24T16:21:06.771Z,9.55
2023-05-24T16:23:34.973Z,6.70
2023-05-24T16:26:03.163Z,13.63
2023-05-24T16:28:31.454Z,8.52
2023-05-24T16:31:03.218Z,6.90
2023-05-24T16:33:31.467Z,7.80
2023-05-24T16:36:03.390Z,12.50
2023-05-24T16:41:01.096Z,14.75
2023-05-24T16:43:29.416Z,11.63
2023-05-24T16:45:57.900Z,8.60
2023-05-24T16:48:28.800Z,12.32
2023-05-24T16:50:57.692Z,8.68
2023-05-24T16:53:26.921Z,10.85
2023-05-24T16:55:56.407Z,9.77
2023-05-24T16:58:28.129Z,8.32
2023-05-24T17:00:56.619Z,8.63
2023-05-24T17:03:28.999Z,6.55
2023-05-24T17:06:03.334Z,12.73
2023-05-24T17:08:36.543Z,8.70
2023-05-24T17:11:05.662Z,11.23
2023-05-24T17:13:35.402Z,9.80
2023-05-24T17:16:04.729Z,15.48
2023-05-24T17:18:34.719Z,10.20
2023-05-24T17:21:04.894Z,9.65
2023-05-24T17:23:37.602Z,8.57
2023-05-24T17:26:08.012Z,10.85
2023-05-24T17:28:36.694Z,7.68
2023-05-24T17:31:07.494Z,10.27
2023-05-24T17:33:39.295Z,12.65
2023-05-24T17:36:09.895Z,13.52
2023-05-24T17:38:38.189Z,11.25
2023-05-24T17:41:09.283Z,12.25
2023-05-24T17:43:40.168Z,10.05
2023-05-24T17:46:09.909Z,11.10
2023-05-24T17:48:41.197Z,13.70
2023-05-24T17:51:10.599Z,14.10
2023-05-24T17:53:41.014Z,17.60
2023-05-24T17:56:10.166Z,12.80
2023-05-24T17:58:39.794Z,14.70
2023-05-24T18:01:11.117Z,14.32
2023-05-24T18:03:42.796Z,9.35
2023-05-24T18:06:11.745Z,12.57
2023-05-24T18:08:43.409Z,12.68
2023-05-24T18:11:14.163Z,7.93
2023-05-24T18:13:44.345Z,9.68
2023-05-24T18:16:14.899Z,10.02
2023-05-24T18:18:44.216Z,9.05
2023-05-24T18:21:14.754Z,13.57
2023-05-24T18:23:43.376Z,12.38
2023-05-24T18:26:12.631Z,11.43
2023-05-24T18:28:43.616Z,11.65
2023-05-24T18:31:12.255Z,10.20
2023-05-24T18:33:40.648Z,14.20
2023-05-24T18:36:09.091Z,12.25
2023-05-24T18:38:40.003Z,13.15
2023-05-24T18:41:12.325Z,10.32
2023-05-24T18:43:43.034Z,7.97
2023-05-24T18:46:15.419Z,8.52
2023-05-24T18:48:45.099Z,10.93
2023-05-24T18:51:13.649Z,9.63
2023-05-24T18:53:49.983Z,8.35
2023-05-24T18:56:18.239Z,10.10
2023-05-24T18:58:49.668Z,10.40
2023-05-24T19:01:19.453Z,10.37
2023-05-24T19:03:48.277Z,8.57
2023-05-24T19:06:16.655Z,10.98
2023-05-24T19:08:44.884Z,13.57
2023-05-24T19:11:14.773Z,10.07
2023-05-24T19:13:49.422Z,12.48
2023-05-24T19:16:18.811Z,8.32
2023-05-24T19:18:56.224Z,10.15
2023-05-24T19:21:26.751Z,9.38
2023-05-24T19:23:56.214Z,11.32
2023-05-24T19:26:24.533Z,9.38
2023-05-24T19:28:54.377Z,8.73
2023-05-24T19:31:27.976Z,7.53
2023-05-24T19:34:00.976Z,7.03
2023-05-24T19:36:32.893Z,8.88
2023-05-24T19:39:05.737Z,10.75
2023-05-24T19:41:36.817Z,9.93
2023-05-24T19:44:06.130Z,8.32
2023-05-24T19:46:37.409Z,10.68
2023-05-24T19:49:05.866Z,11.85
2023-05-24T19:51:34.712Z,11.45
2023-05-24T19:54:06.127Z,9.63
2023-05-24T19:56:34.473Z,10.82
2023-05-24T19:59:05.312Z,11.75
2023-05-24T20:01:34.748Z,10.63
2023-05-24T20:04:03.857Z,13.20
2023-05-24T20:06:34.734Z,9.43
2023-05-24T20:09:06.516Z,14.30
2023-05-24T20:11:35.074Z,9.77
2023-05-24T20:14:03.587Z,12.95
2023-05-24T20:16:31.967Z,12.18
2023-05-24T20:19:01.320Z,9.38
2023-05-24T20:21:37.155Z,9.80
2023-05-24T20:24:06.056Z,11.52
2023-05-24T20:26:36.998Z,16.08
2023-05-24T20:29:08.313Z,11.45
2023-05-24T20:31:38.109Z,11.57
2023-05-24T20:34:10.695Z,8.70
2023-05-24T20:36:41.996Z,11.98
2023-05-24T20:39:12.660Z,13.68
2023-05-24T20:41:41.956Z,10.55
2023-05-24T20:44:12.447Z,8.73
2023-05-24T20:46:43.429Z,9.82
2023-05-24T20:49:12.940Z,9.05
2023-05-24T20:51:52.544Z,10.70
2023-05-24T20:54:21.277Z,9.35
2023-05-24T20:56:49.494Z,10.55
2023-05-24T20:59:21.409Z,12.05
2023-05-24T21:01:50.108Z,8.75
2023-05-24T21:04:19.775Z,10.35
2023-05-24T21:06:49.881Z,10.07
2023-05-24T21:09:18.635Z,11.05
2023-05-24T21:11:48.060Z,9.38
2023-05-24T21:14:16.680Z,12.45
2023-05-24T21:16:52.338Z,12.45
2023-05-24T21:19:20.654Z,10.15
2023-05-24T21:21:48.853Z,9.70
2023-05-24T21:24:17.059Z,10.98
2023-05-24T21:26:45.293Z,10.07
2023-05-24T21:29:13.615Z,10.18
2023-05-24T21:31:41.907Z,12.75
2023-05-24T21:34:10.167Z,10.70
2023-05-24T21:36:38.450Z,8.68
2023-05-24T21:39:07.963Z,9.43
2023-05-24T21:41:37.574Z,10.48
2023-05-24T21:44:08.146Z,11.25
2023-05-24T21:46:36.621Z,9.48
2023-05-24T21:49:05.390Z,12.40
2023-05-24T21:51:33.835Z,10.25
2023-05-24T21:54:02.061Z,10.18
2023-05-24T21:56:30.626Z,13.63
2023-05-24T21:59:01.829Z,8.23
2023-05-24T22:01:30.086Z,16.33
2023-05-24T22:03:59.394Z,10.60
2023-05-24T22:06:27.732Z,9.98
2023-05-24T22:08:59.786Z,9.55
2023-05-24T22:11:29.454Z,10.10
2023-05-24T22:13:57.717Z,11.23
2023-05-24T22:16:26.040Z,8.57
2023-05-24T22:18:55.985Z,9.55
2023-05-24T22:21:24.185Z,9.73
2023-05-24T22:23:52.412Z,12.15
2023-05-24T22:26:20.634Z,11.43
2023-05-24T22:28:50.741Z,13.80
2023-05-24T22:31:19.913Z,10.23
2023-05-24T22:33:51.156Z,11.98
2023-05-24T22:36:19.233Z,10.88
2023-05-24T22:38:47.491Z,11.32
2023-05-24T22:41:15.826Z,9.75
2023-05-24T22:43:44.034Z,11.98
2023-05-24T22:46:12.249Z,12.48
2023-05-24T22:48:40.735Z,8.05
2023-05-24T22:51:09.331Z,10.88
2023-05-24T22:53:39.498Z,9.10
2023-05-24T22:56:10.430Z,11.68
2023-05-24T22:58:38.883Z,10.10
2023-05-24T23:01:07.158Z,8.18
2023-05-24T23:03:35.697Z,10.88
2023-05-24T23:06:04.278Z,10.02
2023-05-24T23:08:33.514Z,9.80
2023-05-24T23:11:01.833Z,8.13
2023-05-24T23:13:33.399Z,7.90
2023-05-24T23:16:01.765Z,7.35
2023-05-24T23:18:29.876Z,9.85
2023-05-24T23:20:58.270Z,12.38
2023-05-24T23:23:27.318Z,8.35
2023-05-24T23:25:57.025Z,10.30
2023-05-24T23:28:25.231Z,10.95
2023-05-24T23:30:53.711Z,9.25
2023-05-24T23:33:22.130Z,9.50
2023-05-24T23:35:50.513Z,8.45
2023-05-24T23:38:18.724Z,10.25
2023-05-24T23:40:46.898Z,9.80
2023-05-24T23:43:15.036Z,11.52
2023-05-24T23:45:43.434Z,8.10
2023-05-24T23:48:11.822Z,9.10
2023-05-24T23:50:53.031Z,7.63
2023-05-24T23:53:22.077Z,11.60
2023-05-24T23:55:50.381Z,10.50
2023-05-24T23:58:18.630Z,9.70
